Airfield :







YOU CAN JOIN US ON...

 
LOGIN :

Register | Disclaimer

   EN    FR    IT 

 









Legend :    VFR   Marginal VFR   IFR   Intensive IFR   Very Intensive IFR
Visi :
Ceiling :
>= 8 km
>= 3000ft
5 to 8 km
1000 to 3000 ft
1500m to 5 km
500 to 1000 ft
800 to 1500m
200 to 500 ft
< 800m
< 200 ft
Symbols :   Thunderstorms  Fog  Heavy snow  Heavy precipitations  Wind > 20 kt







- Airport Elevation : 71 ft
- IATA code : YBC


CYBC - Baie Comeau

CURRENT METAR :
  • 200700Z AUTO 26008KT 9SM CLR 15/14 A2984 RMK SLP105 DENSITY ALT 100FT

EXPIRED METARs :
  • 200600Z AUTO 28005KT 9SM CLR 15/14 A2982 RMK SLP101 DENSITY ALT 200FT
  • 200500Z AUTO 27009KT 9SM CLR 16/15 A2979 RMK SLP091 DENSITY ALT 300FT
  • 200400Z AUTO 27007KT 9SM CLR 17/15 A2978 RMK SLP086 DENSITY ALT 400FT

TAF TAF CYBC
Valid from the 20 at 02:00 until the 20 at 14:00 UTC


200139Z 2002/2014 25012KT 5SM BR OVC003
TEMPO 2002/2004 P6SM NSW SCT004 BKN090
FM200400 27010KT P6SM FEW020 RMK FCST BASED ON AUTO OBS. NXT FCST BY 200800Z
No reported NOTAMs for that airfield.



MET'MAP, your aeronautical weather chart ! - Copyright ORBIFLY December 2007 - Disclaimer

ORBIFLY MET'MAP TEAM :

Programming & Development : Alexandra Zaïnal
Concept & Development : Baudouin d'Aumeries
Co-Development & Prog : Marc-Olivier Méhu
Technical & hardware support : Manuel Goepfert

Contact : metmap@orbifly.com




SOURCES & CREDITS :

   NOAA